sensor_id;sensor_type;location;lat;lon;timestamp;pressure;altitude;pressure_sealevel;temperature;humidity
41636;BME280;27623;51.966;4.602;2023-06-24T00:00:02;65623.84;;;21.68;60.30
41636;BME280;27623;51.966;4.602;2023-06-24T00:02:32;65607.41;;;21.63;61.52
41636;BME280;27623;51.966;4.602;2023-06-24T00:04:57;65569.13;;;21.56;61.90
41636;BME280;27623;51.966;4.602;2023-06-24T00:07:25;65588.69;;;21.62;62.06
41636;BME280;27623;51.966;4.602;2023-06-24T00:09:51;65590.97;;;21.57;62.32
41636;BME280;27623;51.966;4.602;2023-06-24T00:12:17;65608.03;;;21.56;63.31
41636;BME280;27623;51.966;4.602;2023-06-24T00:14:45;65561.34;;;21.39;64.71
41636;BME280;27623;51.966;4.602;2023-06-24T00:17:13;65562.56;;;21.43;65.42
41636;BME280;27623;51.966;4.602;2023-06-24T00:19:38;65594.63;;;21.41;66.36
41636;BME280;27623;51.966;4.602;2023-06-24T00:22:04;65555.59;;;21.39;67.40
41636;BME280;27623;51.966;4.602;2023-06-24T00:24:31;65531.78;;;21.31;68.16
41636;BME280;27623;51.966;4.602;2023-06-24T00:26:56;65571.06;;;21.46;67.96
41636;BME280;27623;51.966;4.602;2023-06-24T00:29:21;65561.88;;;21.40;68.59
41636;BME280;27623;51.966;4.602;2023-06-24T00:31:47;65584.13;;;21.39;68.83
41636;BME280;27623;51.966;4.602;2023-06-24T00:34:13;65543.84;;;21.25;69.95
41636;BME280;27623;51.966;4.602;2023-06-24T00:36:38;65536.47;;;21.23;70.84
41636;BME280;27623;51.966;4.602;2023-06-24T00:39:06;65526.25;;;21.26;70.86
41636;BME280;27623;51.966;4.602;2023-06-24T00:41:35;65533.47;;;21.25;72.31
41636;BME280;27623;51.966;4.602;2023-06-24T00:44:01;65533.22;;;21.13;73.26
41636;BME280;27623;51.966;4.602;2023-06-24T00:46:27;65523.56;;;21.16;73.33
41636;BME280;27623;51.966;4.602;2023-06-24T00:48:55;65499.50;;;20.97;74.45
41636;BME280;27623;51.966;4.602;2023-06-24T00:51:21;65529.34;;;20.93;75.50
41636;BME280;27623;51.966;4.602;2023-06-24T00:53:54;65489.53;;;20.95;75.25
41636;BME280;27623;51.966;4.602;2023-06-24T00:56:22;65540.50;;;21.06;74.38
41636;BME280;27623;51.966;4.602;2023-06-24T00:58:50;65513.47;;;21.05;74.13
41636;BME280;27623;51.966;4.602;2023-06-24T01:01:17;65523.06;;;21.09;73.16
41636;BME280;27623;51.966;4.602;2023-06-24T01:03:43;65566.66;;;21.01;74.74
41636;BME280;27623;51.966;4.602;2023-06-24T01:06:09;65517.22;;;20.82;76.33
41636;BME280;27623;51.966;4.602;2023-06-24T01:08:35;65485.00;;;20.81;76.28
41636;BME280;27623;51.966;4.602;2023-06-24T01:11:01;65477.88;;;20.74;76.36
41636;BME280;27623;51.966;4.602;2023-06-24T01:13:26;65490.50;;;20.69;76.77
41636;BME280;27623;51.966;4.602;2023-06-24T01:15:52;65492.75;;;20.64;77.07
41636;BME280;27623;51.966;4.602;2023-06-24T01:21:24;65485.00;;;20.64;77.22
41636;BME280;27623;51.966;4.602;2023-06-24T01:31:59;65453.28;;;20.54;76.31
41636;BME280;27623;51.966;4.602;2023-06-24T01:37:46;65463.78;;;20.56;75.21
41636;BME280;27623;51.966;4.602;2023-06-24T01:40:11;65490.56;;;20.62;74.46
41636;BME280;27623;51.966;4.602;2023-06-24T01:42:39;65463.63;;;20.54;74.59
41636;BME280;27623;51.966;4.602;2023-06-24T01:45:07;65422.31;;;20.40;75.36
41636;BME280;27623;51.966;4.602;2023-06-24T01:47:36;65407.28;;;20.47;74.57
41636;BME280;27623;51.966;4.602;2023-06-24T01:50:03;65481.38;;;20.56;74.60
41636;BME280;27623;51.966;4.602;2023-06-24T01:52:29;65443.84;;;20.52;74.33
41636;BME280;27623;51.966;4.602;2023-06-24T01:54:55;65424.59;;;20.35;76.30
41636;BME280;27623;51.966;4.602;2023-06-24T01:57:24;65445.06;;;20.39;76.21
41636;BME280;27623;51.966;4.602;2023-06-24T01:59:53;65426.28;;;20.29;77.33
41636;BME280;27623;51.966;4.602;2023-06-24T02:02:20;65413.94;;;20.22;77.90
41636;BME280;27623;51.966;4.602;2023-06-24T02:04:48;65403.13;;;20.15;78.91
41636;BME280;27623;51.966;4.602;2023-06-24T02:07:16;65412.13;;;20.18;79.48
41636;BME280;27623;51.966;4.602;2023-06-24T02:09:43;65430.16;;;20.33;78.71
41636;BME280;27623;51.966;4.602;2023-06-24T02:12:09;65425.34;;;20.31;77.69
41636;BME280;27623;51.966;4.602;2023-06-24T02:14:36;65391.31;;;20.33;77.55
41636;BME280;27623;51.966;4.602;2023-06-24T02:17:04;65383.84;;;20.21;78.80
41636;BME280;27623;51.966;4.602;2023-06-24T02:19:31;65382.72;;;20.03;79.41
41636;BME280;27623;51.966;4.602;2023-06-24T02:21:58;65366.47;;;20.00;80.83
41636;BME280;27623;51.966;4.602;2023-06-24T02:24:26;65405.06;;;20.05;80.93
41636;BME280;27623;51.966;4.602;2023-06-24T02:26:53;65405.09;;;20.21;79.68
41636;BME280;27623;51.966;4.602;2023-06-24T02:29:20;65415.94;;;20.29;78.37
41636;BME280;27623;51.966;4.602;2023-06-24T02:31:47;65453.50;;;20.25;78.77
41636;BME280;27623;51.966;4.602;2023-06-24T02:34:15;65414.34;;;20.20;79.45
41636;BME280;27623;51.966;4.602;2023-06-24T02:36:40;65408.84;;;20.15;79.80
41636;BME280;27623;51.966;4.602;2023-06-24T02:39:06;65385.00;;;20.15;80.94
41636;BME280;27623;51.966;4.602;2023-06-24T02:41:31;65414.09;;;20.08;81.15
41636;BME280;27623;51.966;4.602;2023-06-24T02:43:56;65371.47;;;19.98;81.82
41636;BME280;27623;51.966;4.602;2023-06-24T02:46:22;65404.66;;;20.07;82.38
41636;BME280;27623;51.966;4.602;2023-06-24T02:48:49;65381.38;;;20.07;81.73
41636;BME280;27623;51.966;4.602;2023-06-24T02:51:16;65406.09;;;20.13;81.31
41636;BME280;27623;51.966;4.602;2023-06-24T02:53:42;65431.25;;;20.10;81.00
41636;BME280;27623;51.966;4.602;2023-06-24T02:56:08;65418.66;;;20.15;81.12
41636;BME280;27623;51.966;4.602;2023-06-24T02:58:36;65390.03;;;20.12;82.02
41636;BME280;27623;51.966;4.602;2023-06-24T03:01:03;65366.69;;;19.96;81.96
41636;BME280;27623;51.966;4.602;2023-06-24T03:03:32;65417.91;;;19.95;83.04
41636;BME280;27623;51.966;4.602;2023-06-24T03:05:58;65374.69;;;19.91;83.89
41636;BME280;27623;51.966;4.602;2023-06-24T03:08:24;65370.63;;;19.68;83.28
41636;BME280;27623;51.966;4.602;2023-06-24T03:10:54;65348.56;;;19.79;83.53
41636;BME280;27623;51.966;4.602;2023-06-24T03:13:20;65368.25;;;19.87;82.70
41636;BME280;27623;51.966;4.602;2023-06-24T03:15:45;65333.06;;;19.96;82.71
41636;BME280;27623;51.966;4.602;2023-06-24T03:18:11;65376.25;;;20.00;83.15
41636;BME280;27623;51.966;4.602;2023-06-24T03:20:36;65387.94;;;19.96;82.85
41636;BME280;27623;51.966;4.602;2023-06-24T03:23:06;65392.34;;;20.00;82.70
41636;BME280;27623;51.966;4.602;2023-06-24T03:25:32;65398.28;;;19.96;83.15
41636;BME280;27623;51.966;4.602;2023-06-24T03:27:57;65412.50;;;20.00;83.50
41636;BME280;27623;51.966;4.602;2023-06-24T03:30:23;65388.00;;;19.89;82.88
41636;BME280;27623;51.966;4.602;2023-06-24T03:32:49;65366.69;;;19.96;81.95
41636;BME280;27623;51.966;4.602;2023-06-24T03:35:14;65384.50;;;19.90;81.74
41636;BME280;27623;51.966;4.602;2023-06-24T03:37:40;65345.56;;;19.81;81.84
41636;BME280;27623;51.966;4.602;2023-06-24T03:40:06;65319.47;;;19.69;81.93
41636;BME280;27623;51.966;4.602;2023-06-24T03:42:31;65356.47;;;19.81;81.86
41636;BME280;27623;51.966;4.602;2023-06-24T03:44:57;65385.66;;;19.84;81.99
41636;BME280;27623;51.966;4.602;2023-06-24T03:47:22;65423.22;;;19.98;82.06
41636;BME280;27623;51.966;4.602;2023-06-24T03:49:47;65402.22;;;19.93;81.80
41636;BME280;27623;51.966;4.602;2023-06-24T03:52:13;65340.53;;;19.67;82.23
41636;BME280;27623;51.966;4.602;2023-06-24T03:54:38;65331.63;;;19.73;81.92
41636;BME280;27623;51.966;4.602;2023-06-24T03:57:06;65331.28;;;19.68;82.13
41636;BME280;27623;51.966;4.602;2023-06-24T03:59:32;65341.41;;;19.72;82.46
41636;BME280;27623;51.966;4.602;2023-06-24T04:01:58;65338.28;;;19.72;81.84
41636;BME280;27623;51.966;4.602;2023-06-24T04:04:23;65361.56;;;19.72;81.55
41636;BME280;27623;51.966;4.602;2023-06-24T04:06:48;65311.94;;;19.64;82.14
41636;BME280;27623;51.966;4.602;2023-06-24T04:09:14;65337.34;;;19.73;81.39
41636;BME280;27623;51.966;4.602;2023-06-24T04:11:39;65354.97;;;19.66;81.53
41636;BME280;27623;51.966;4.602;2023-06-24T04:14:05;65371.75;;;19.69;81.75
41636;BME280;27623;51.966;4.602;2023-06-24T04:16:32;65320.63;;;19.63;81.77
41636;BME280;27623;51.966;4.602;2023-06-24T04:18:57;65356.22;;;19.69;82.38
41636;BME280;27623;51.966;4.602;2023-06-24T04:21:23;65313.75;;;19.68;82.06
41636;BME280;27623;51.966;4.602;2023-06-24T04:23:48;65361.88;;;19.77;82.49
41636;BME280;27623;51.966;4.602;2023-06-24T04:26:13;65369.34;;;19.88;81.44
41636;BME280;27623;51.966;4.602;2023-06-24T04:28:41;65349.16;;;19.48;81.64
41636;BME280;27623;51.966;4.602;2023-06-24T04:31:07;65339.81;;;19.64;82.05
41636;BME280;27623;51.966;4.602;2023-06-24T04:33:32;65355.00;;;19.59;81.78
41636;BME280;27623;51.966;4.602;2023-06-24T04:35:57;65355.84;;;19.71;81.55
41636;BME280;27623;51.966;4.602;2023-06-24T04:38:25;65385.22;;;19.70;81.02
41636;BME280;27623;51.966;4.602;2023-06-24T04:40:50;65342.97;;;19.64;81.82
41636;BME280;27623;51.966;4.602;2023-06-24T04:43:16;65342.06;;;19.59;82.11
41636;BME280;27623;51.966;4.602;2023-06-24T04:45:41;65324.91;;;19.57;82.30
41636;BME280;27623;51.966;4.602;2023-06-24T04:48:07;65376.53;;;19.71;81.57
41636;BME280;27623;51.966;4.602;2023-06-24T04:50:32;65356.28;;;19.62;81.88
41636;BME280;27623;51.966;4.602;2023-06-24T04:52:57;65352.69;;;19.71;82.25
41636;BME280;27623;51.966;4.602;2023-06-24T04:55:23;65357.31;;;19.70;81.58
41636;BME280;27623;51.966;4.602;2023-06-24T04:57:48;65346.88;;;19.61;82.11
41636;BME280;27623;51.966;4.602;2023-06-24T05:00:14;65277.31;;;19.32;83.47
41636;BME280;27623;51.966;4.602;2023-06-24T05:02:42;65303.19;;;19.25;84.34
41636;BME280;27623;51.966;4.602;2023-06-24T05:05:07;65322.06;;;19.45;84.18
41636;BME280;27623;51.966;4.602;2023-06-24T05:07:33;65347.63;;;19.56;83.81
41636;BME280;27623;51.966;4.602;2023-06-24T05:09:58;65316.66;;;19.49;84.00
41636;BME280;27623;51.966;4.602;2023-06-24T05:12:24;65340.50;;;19.50;84.51
41636;BME280;27623;51.966;4.602;2023-06-24T05:14:52;65323.44;;;19.58;84.23
41636;BME280;27623;51.966;4.602;2023-06-24T05:17:19;65299.59;;;19.58;84.46
41636;BME280;27623;51.966;4.602;2023-06-24T05:19:44;65332.44;;;19.62;85.07
41636;BME280;27623;51.966;4.602;2023-06-24T05:22:09;65327.50;;;19.57;85.24
41636;BME280;27623;51.966;4.602;2023-06-24T05:24:35;65355.00;;;19.59;85.45
41636;BME280;27623;51.966;4.602;2023-06-24T05:27:04;65332.19;;;19.49;85.75
41636;BME280;27623;51.966;4.602;2023-06-24T05:29:33;65337.13;;;19.54;85.72
41636;BME280;27623;51.966;4.602;2023-06-24T05:32:01;65332.78;;;19.67;85.28
41636;BME280;27623;51.966;4.602;2023-06-24T05:34:28;65337.91;;;19.50;85.97
41636;BME280;27623;51.966;4.602;2023-06-24T05:36:54;65327.00;;;19.49;85.79
41636;BME280;27623;51.966;4.602;2023-06-24T05:39:20;65309.09;;;19.52;86.42
41636;BME280;27623;51.966;4.602;2023-06-24T05:41:45;65304.09;;;19.31;87.28
41636;BME280;27623;51.966;4.602;2023-06-24T05:44:13;65308.34;;;19.49;87.27
41636;BME280;27623;51.966;4.602;2023-06-24T05:46:38;65326.00;;;19.58;87.15
41636;BME280;27623;51.966;4.602;2023-06-24T05:49:04;65374.31;;;19.69;86.55
41636;BME280;27623;51.966;4.602;2023-06-24T05:51:29;65361.19;;;19.74;85.73
41636;BME280;27623;51.966;4.602;2023-06-24T05:53:55;65352.63;;;19.78;85.87
41636;BME280;27623;51.966;4.602;2023-06-24T05:56:21;65388.13;;;19.75;86.62
41636;BME280;27623;51.966;4.602;2023-06-24T05:58:47;65336.78;;;19.73;86.52
41636;BME280;27623;51.966;4.602;2023-06-24T06:01:13;65323.06;;;19.77;86.63
41636;BME280;27623;51.966;4.602;2023-06-24T06:03:38;65350.38;;;19.83;86.71
41636;BME280;27623;51.966;4.602;2023-06-24T06:06:06;65358.69;;;19.83;86.34
41636;BME280;27623;51.966;4.602;2023-06-24T06:08:32;65386.19;;;19.85;86.89
41636;BME280;27623;51.966;4.602;2023-06-24T06:10:58;65391.31;;;19.92;86.86
41636;BME280;27623;51.966;4.602;2023-06-24T06:13:24;65386.06;;;19.99;86.31
41636;BME280;27623;51.966;4.602;2023-06-24T06:15:49;65383.47;;;19.99;86.68
41636;BME280;27623;51.966;4.602;2023-06-24T06:18:14;65410.28;;;19.98;86.33
41636;BME280;27623;51.966;4.602;2023-06-24T06:20:40;65403.06;;;19.98;86.18
41636;BME280;27623;51.966;4.602;2023-06-24T06:23:06;65394.47;;;20.09;86.01
41636;BME280;27623;51.966;4.602;2023-06-24T06:25:32;65386.72;;;20.09;86.76
41636;BME280;27623;51.966;4.602;2023-06-24T06:27:57;65410.19;;;20.12;86.37
41636;BME280;27623;51.966;4.602;2023-06-24T06:30:23;65422.34;;;20.16;86.29
41636;BME280;27623;51.966;4.602;2023-06-24T06:32:48;65456.69;;;20.19;87.21
41636;BME280;27623;51.966;4.602;2023-06-24T06:35:14;65448.44;;;20.35;86.91
41636;BME280;27623;51.966;4.602;2023-06-24T06:37:39;65437.31;;;20.39;86.13
41636;BME280;27623;51.966;4.602;2023-06-24T06:40:05;65423.47;;;20.34;85.93
41636;BME280;27623;51.966;4.602;2023-06-24T06:42:31;65444.53;;;20.39;86.64
41636;BME280;27623;51.966;4.602;2023-06-24T06:44:56;65427.66;;;20.42;86.22
41636;BME280;27623;51.966;4.602;2023-06-24T06:47:22;65445.63;;;20.40;86.48
41636;BME280;27623;51.966;4.602;2023-06-24T06:49:48;65448.38;;;20.42;86.70
41636;BME280;27623;51.966;4.602;2023-06-24T06:52:13;65444.28;;;20.43;86.67
41636;BME280;27623;51.966;4.602;2023-06-24T06:54:39;65476.19;;;20.56;85.89
41636;BME280;27623;51.966;4.602;2023-06-24T06:57:04;65487.59;;;20.64;86.75
41636;BME280;27623;51.966;4.602;2023-06-24T06:59:31;65464.81;;;20.65;85.65
41636;BME280;27623;51.966;4.602;2023-06-24T07:01:56;65465.22;;;20.63;86.93
41636;BME280;27623;51.966;4.602;2023-06-24T07:04:22;65463.56;;;20.61;87.33
41636;BME280;27623;51.966;4.602;2023-06-24T07:06:47;65509.25;;;20.63;87.38
41636;BME280;27623;51.966;4.602;2023-06-24T07:09:13;65494.19;;;20.70;86.99
41636;BME280;27623;51.966;4.602;2023-06-24T07:11:38;65508.97;;;20.74;87.67
41636;BME280;27623;51.966;4.602;2023-06-24T07:14:03;65481.25;;;20.87;85.92
41636;BME280;27623;51.966;4.602;2023-06-24T07:16:29;65535.50;;;20.84;86.51
41636;BME280;27623;51.966;4.602;2023-06-24T07:18:54;65492.50;;;20.92;86.07
41636;BME280;27623;51.966;4.602;2023-06-24T07:21:19;65507.28;;;20.97;85.82
41636;BME280;27623;51.966;4.602;2023-06-24T07:23:45;65531.28;;;21.00;85.02
41636;BME280;27623;51.966;4.602;2023-06-24T07:26:11;65505.78;;;20.98;86.35
41636;BME280;27623;51.966;4.602;2023-06-24T07:28:36;65490.00;;;21.02;86.36
41636;BME280;27623;51.966;4.602;2023-06-24T07:31:01;65591.75;;;21.12;86.43
41636;BME280;27623;51.966;4.602;2023-06-24T07:33:27;65541.78;;;21.09;84.79
41636;BME280;27623;51.966;4.602;2023-06-24T07:35:55;65540.44;;;21.13;84.30
41636;BME280;27623;51.966;4.602;2023-06-24T07:38:20;65558.84;;;21.25;83.83
41636;BME280;27623;51.966;4.602;2023-06-24T07:40:46;65587.53;;;21.27;82.78
41636;BME280;27623;51.966;4.602;2023-06-24T07:43:11;65567.13;;;21.33;83.12
41636;BME280;27623;51.966;4.602;2023-06-24T07:45:36;65608.22;;;21.35;83.01
41636;BME280;27623;51.966;4.602;2023-06-24T07:48:02;65574.84;;;21.40;82.59
41636;BME280;27623;51.966;4.602;2023-06-24T07:50:27;65596.84;;;21.43;83.46
41636;BME280;27623;51.966;4.602;2023-06-24T07:52:53;65587.34;;;21.49;82.60
41636;BME280;27623;51.966;4.602;2023-06-24T07:55:18;65622.97;;;21.63;81.72
41636;BME280;27623;51.966;4.602;2023-06-24T07:57:47;65618.75;;;21.61;80.58
41636;BME280;27623;51.966;4.602;2023-06-24T08:00:14;65661.06;;;21.74;81.65
41636;BME280;27623;51.966;4.602;2023-06-24T08:02:43;65662.31;;;21.77;81.78
41636;BME280;27623;51.966;4.602;2023-06-24T08:05:08;65660.13;;;21.75;80.22
41636;BME280;27623;51.966;4.602;2023-06-24T08:07:34;65636.06;;;21.72;81.19
41636;BME280;27623;51.966;4.602;2023-06-24T08:10:00;65654.22;;;21.72;81.76
41636;BME280;27623;51.966;4.602;2023-06-24T08:12:25;65639.44;;;21.85;80.25
41636;BME280;27623;51.966;4.602;2023-06-24T08:14:51;65639.06;;;21.87;80.48
41636;BME280;27623;51.966;4.602;2023-06-24T08:17:16;65662.75;;;21.92;80.16
41636;BME280;27623;51.966;4.602;2023-06-24T08:19:41;65650.09;;;21.97;79.06
41636;BME280;27623;51.966;4.602;2023-06-24T08:22:07;65663.06;;;21.97;79.64
41636;BME280;27623;51.966;4.602;2023-06-24T08:24:32;65651.69;;;22.06;78.09
41636;BME280;27623;51.966;4.602;2023-06-24T08:26:57;65668.47;;;22.16;76.65
41636;BME280;27623;51.966;4.602;2023-06-24T08:29:23;65698.59;;;22.25;77.97
41636;BME280;27623;51.966;4.602;2023-06-24T08:31:50;65694.19;;;22.21;77.83
41636;BME280;27623;51.966;4.602;2023-06-24T08:34:16;65743.84;;;22.26;79.04
41636;BME280;27623;51.966;4.602;2023-06-24T08:36:41;65757.50;;;22.36;78.40
41636;BME280;27623;51.966;4.602;2023-06-24T08:39:07;65742.16;;;22.48;78.99
41636;BME280;27623;51.966;4.602;2023-06-24T08:41:33;65744.53;;;22.53;78.77
41636;BME280;27623;51.966;4.602;2023-06-24T08:44:00;65754.69;;;22.57;78.65
41636;BME280;27623;51.966;4.602;2023-06-24T08:46:27;65774.88;;;22.64;78.68
41636;BME280;27623;51.966;4.602;2023-06-24T08:49:25;65771.25;;;22.73;78.29
41636;BME280;27623;51.966;4.602;2023-06-24T08:52:09;65765.41;;;22.62;76.63
41636;BME280;27623;51.966;4.602;2023-06-24T08:54:36;65781.81;;;22.75;78.44
41636;BME280;27623;51.966;4.602;2023-06-24T08:57:04;65817.69;;;22.91;77.91
41636;BME280;27623;51.966;4.602;2023-06-24T08:59:34;65816.28;;;23.02;77.40
41636;BME280;27623;51.966;4.602;2023-06-24T09:02:00;65808.16;;;22.97;76.73
41636;BME280;27623;51.966;4.602;2023-06-24T09:04:25;65821.50;;;23.02;76.71
41636;BME280;27623;51.966;4.602;2023-06-24T09:06:51;65829.47;;;23.05;77.25
41636;BME280;27623;51.966;4.602;2023-06-24T09:09:20;65838.84;;;23.13;76.34
41636;BME280;27623;51.966;4.602;2023-06-24T09:11:52;65865.16;;;23.18;75.08
41636;BME280;27623;51.966;4.602;2023-06-24T09:14:18;65845.47;;;23.19;72.83
41636;BME280;27623;51.966;4.602;2023-06-24T09:16:57;65874.72;;;23.29;73.12
41636;BME280;27623;51.966;4.602;2023-06-24T09:19:24;65897.13;;;23.38;72.96
41636;BME280;27623;51.966;4.602;2023-06-24T09:21:50;65885.78;;;23.40;70.96
41636;BME280;27623;51.966;4.602;2023-06-24T09:24:21;65900.59;;;23.44;70.07
41636;BME280;27623;51.966;4.602;2023-06-24T09:26:47;65853.50;;;23.31;70.82
41636;BME280;27623;51.966;4.602;2023-06-24T09:29:13;65882.66;;;23.56;71.17
41636;BME280;27623;51.966;4.602;2023-06-24T09:31:48;65926.28;;;23.62;70.06
41636;BME280;27623;51.966;4.602;2023-06-24T09:34:14;65891.25;;;23.52;69.15
41636;BME280;27623;51.966;4.602;2023-06-24T09:36:43;65918.09;;;23.64;71.92
41636;BME280;27623;51.966;4.602;2023-06-24T09:39:10;65936.56;;;23.77;70.11
41636;BME280;27623;51.966;4.602;2023-06-24T09:41:36;65949.97;;;23.75;69.03
41636;BME280;27623;51.966;4.602;2023-06-24T09:44:08;65941.59;;;23.91;69.29
41636;BME280;27623;51.966;4.602;2023-06-24T09:46:34;65952.19;;;23.93;70.89
41636;BME280;27623;51.966;4.602;2023-06-24T09:49:01;65974.84;;;23.97;67.98
41636;BME280;27623;51.966;4.602;2023-06-24T09:51:27;65970.13;;;24.05;68.17
41636;BME280;27623;51.966;4.602;2023-06-24T09:53:53;66010.06;;;24.11;67.82
41636;BME280;27623;51.966;4.602;2023-06-24T09:56:20;65985.13;;;24.12;69.94
41636;BME280;27623;51.966;4.602;2023-06-24T09:58:46;66018.88;;;24.26;69.31
41636;BME280;27623;51.966;4.602;2023-06-24T10:01:12;65998.97;;;24.24;68.66
41636;BME280;27623;51.966;4.602;2023-06-24T10:03:38;66016.19;;;24.33;67.62
41636;BME280;27623;51.966;4.602;2023-06-24T10:06:04;66013.19;;;24.35;65.99
41636;BME280;27623;51.966;4.602;2023-06-24T10:08:31;65986.56;;;24.35;67.73
41636;BME280;27623;51.966;4.602;2023-06-24T10:10:58;66022.75;;;24.46;67.73
41636;BME280;27623;51.966;4.602;2023-06-24T10:13:25;66014.84;;;24.53;67.29
41636;BME280;27623;51.966;4.602;2023-06-24T10:15:51;66053.34;;;24.60;67.13
41636;BME280;27623;51.966;4.602;2023-06-24T10:18:34;66060.84;;;24.72;67.45
41636;BME280;27623;51.966;4.602;2023-06-24T10:21:00;66078.25;;;24.83;65.45
41636;BME280;27623;51.966;4.602;2023-06-24T10:23:42;66079.13;;;24.88;65.38
41636;BME280;27623;51.966;4.602;2023-06-24T10:26:27;66100.06;;;24.98;62.61
41636;BME280;27623;51.966;4.602;2023-06-24T10:37:04;66159.56;;;25.31;60.92
41636;BME280;27623;51.966;4.602;2023-06-24T10:39:46;66101.81;;;25.26;61.08
41636;BME280;27623;51.966;4.602;2023-06-24T10:47:39;66155.91;;;25.40;60.85
41636;BME280;27623;51.966;4.602;2023-06-24T10:50:06;66211.47;;;25.59;60.72
41636;BME280;27623;51.966;4.602;2023-06-24T10:52:32;66152.22;;;25.55;59.75
41636;BME280;27623;51.966;4.602;2023-06-24T10:54:58;66155.69;;;25.61;60.33
41636;BME280;27623;51.966;4.602;2023-06-24T10:57:27;66166.47;;;25.49;60.47
41636;BME280;27623;51.966;4.602;2023-06-24T10:59:56;66182.75;;;25.43;57.31
41636;BME280;27623;51.966;4.602;2023-06-24T11:02:26;66171.75;;;25.59;58.72
41636;BME280;27623;51.966;4.602;2023-06-24T11:04:57;66157.75;;;25.44;57.55
41636;BME280;27623;51.966;4.602;2023-06-24T11:07:27;66235.47;;;25.67;59.07
41636;BME280;27623;51.966;4.602;2023-06-24T11:09:55;66183.66;;;25.65;59.95
41636;BME280;27623;51.966;4.602;2023-06-24T11:12:26;66209.69;;;25.72;59.30
41636;BME280;27623;51.966;4.602;2023-06-24T11:14:58;66306.53;;;26.08;57.60
41636;BME280;27623;51.966;4.602;2023-06-24T11:17:25;66315.81;;;26.14;56.71
41636;BME280;27623;51.966;4.602;2023-06-24T11:19:54;66285.50;;;26.39;56.63
41636;BME280;27623;51.966;4.602;2023-06-24T11:22:21;66342.16;;;26.50;53.38
41636;BME280;27623;51.966;4.602;2023-06-24T11:24:46;66310.06;;;26.47;52.15
41636;BME280;27623;51.966;4.602;2023-06-24T11:27:12;66362.97;;;26.41;53.05
41636;BME280;27623;51.966;4.602;2023-06-24T11:29:37;66349.03;;;26.68;53.15
41636;BME280;27623;51.966;4.602;2023-06-24T11:32:08;66411.84;;;27.02;52.58
41636;BME280;27623;51.966;4.602;2023-06-24T11:34:37;66459.06;;;27.28;51.20
41636;BME280;27623;51.966;4.602;2023-06-24T11:37:13;66499.34;;;27.60;53.59
41636;BME280;27623;51.966;4.602;2023-06-24T11:39:39;66472.63;;;27.36;51.14
41636;BME280;27623;51.966;4.602;2023-06-24T11:42:07;66538.97;;;27.82;52.35
41636;BME280;27623;51.966;4.602;2023-06-24T11:44:36;66601.88;;;27.99;50.97
41636;BME280;27623;51.966;4.602;2023-06-24T11:47:07;66509.66;;;27.58;51.04
41636;BME280;27623;51.966;4.602;2023-06-24T11:49:51;66536.56;;;27.78;51.96
41636;BME280;27623;51.966;4.602;2023-06-24T11:52:17;66575.41;;;28.03;52.95
41636;BME280;27623;51.966;4.602;2023-06-24T11:54:43;66572.06;;;28.00;51.53
41636;BME280;27623;51.966;4.602;2023-06-24T11:57:09;66608.94;;;28.36;52.41
41636;BME280;27623;51.966;4.602;2023-06-24T11:59:35;66590.19;;;28.05;49.03
41636;BME280;27623;51.966;4.602;2023-06-24T12:02:00;66521.72;;;27.83;49.24
41636;BME280;27623;51.966;4.602;2023-06-24T12:04:33;66508.06;;;27.66;50.91
41636;BME280;27623;51.966;4.602;2023-06-24T12:06:59;66584.06;;;27.99;49.03
41636;BME280;27623;51.966;4.602;2023-06-24T12:09:25;66584.56;;;28.24;49.87
41636;BME280;27623;51.966;4.602;2023-06-24T12:11:52;66553.56;;;27.81;48.61
41636;BME280;27623;51.966;4.602;2023-06-24T12:14:17;66594.94;;;28.14;49.34
41636;BME280;27623;51.966;4.602;2023-06-24T12:16:43;66529.72;;;27.86;50.41
41636;BME280;27623;51.966;4.602;2023-06-24T12:19:08;66557.13;;;27.96;49.74
41636;BME280;27623;51.966;4.602;2023-06-24T12:21:34;66623.91;;;28.41;48.55
41636;BME280;27623;51.966;4.602;2023-06-24T12:24:03;66526.16;;;27.87;46.85
41636;BME280;27623;51.966;4.602;2023-06-24T12:26:31;66564.44;;;28.13;48.09
41636;BME280;27623;51.966;4.602;2023-06-24T12:28:57;66500.75;;;28.00;49.35
41636;BME280;27623;51.966;4.602;2023-06-24T12:31:23;66668.03;;;28.66;51.62
41636;BME280;27623;51.966;4.602;2023-06-24T12:33:49;66650.59;;;28.48;47.88
41636;BME280;27623;51.966;4.602;2023-06-24T12:36:14;66668.59;;;28.67;48.25
41636;BME280;27623;51.966;4.602;2023-06-24T12:38:40;66584.78;;;28.36;47.18
41636;BME280;27623;51.966;4.602;2023-06-24T12:41:05;66570.66;;;28.28;46.33
41636;BME280;27623;51.966;4.602;2023-06-24T12:43:32;66585.69;;;28.25;47.84
41636;BME280;27623;51.966;4.602;2023-06-24T12:45:58;66623.28;;;28.47;47.90
41636;BME280;27623;51.966;4.602;2023-06-24T12:48:23;66567.47;;;28.27;48.50
41636;BME280;27623;51.966;4.602;2023-06-24T12:50:48;66582.50;;;28.41;49.29
41636;BME280;27623;51.966;4.602;2023-06-24T12:53:18;66689.75;;;28.86;47.25
41636;BME280;27623;51.966;4.602;2023-06-24T12:55:43;66767.31;;;29.26;46.42
41636;BME280;27623;51.966;4.602;2023-06-24T12:58:08;66746.06;;;29.30;45.41
41636;BME280;27623;51.966;4.602;2023-06-24T13:00:34;66680.28;;;28.94;44.38
41636;BME280;27623;51.966;4.602;2023-06-24T13:02:59;66695.31;;;28.91;45.27
41636;BME280;27623;51.966;4.602;2023-06-24T13:05:25;66695.31;;;28.91;44.94
41636;BME280;27623;51.966;4.602;2023-06-24T13:07:50;66736.22;;;29.07;47.18
41636;BME280;27623;51.966;4.602;2023-06-24T13:10:16;66686.81;;;28.81;47.05
41636;BME280;27623;51.966;4.602;2023-06-24T13:12:42;66573.69;;;28.26;48.18
41636;BME280;27623;51.966;4.602;2023-06-24T13:15:07;66645.75;;;28.63;47.53
41636;BME280;27623;51.966;4.602;2023-06-24T13:17:34;66685.63;;;28.87;46.58
41636;BME280;27623;51.966;4.602;2023-06-24T13:20:00;66700.97;;;29.06;46.58
41636;BME280;27623;51.966;4.602;2023-06-24T13:22:26;66690.59;;;28.75;44.83
41636;BME280;27623;51.966;4.602;2023-06-24T13:24:52;66707.41;;;28.83;45.29